sensor_id;sensor_type;location;lat;lon;timestamp;temperature;humidity
42683;DHT22;28293;50.930;3.464;2023-04-01T00:00:53;10.30;92.30
42683;DHT22;28293;50.930;3.464;2023-04-01T00:03:20;10.30;92.30
42683;DHT22;28293;50.930;3.464;2023-04-01T00:05:46;10.20;92.30
42683;DHT22;28293;50.930;3.464;2023-04-01T00:08:13;10.30;92.50
42683;DHT22;28293;50.930;3.464;2023-04-01T00:10:38;10.30;92.30
42683;DHT22;28293;50.930;3.464;2023-04-01T00:13:04;10.30;92.30
42683;DHT22;28293;50.930;3.464;2023-04-01T00:15:31;10.30;92.30
42683;DHT22;28293;50.930;3.464;2023-04-01T00:17:56;10.30;92.40
42683;DHT22;28293;50.930;3.464;2023-04-01T00:20:22;10.30;92.30
42683;DHT22;28293;50.930;3.464;2023-04-01T00:22:48;10.30;92.40
42683;DHT22;28293;50.930;3.464;2023-04-01T00:25:14;10.20;92.30
42683;DHT22;28293;50.930;3.464;2023-04-01T00:27:40;10.20;92.30
42683;DHT22;28293;50.930;3.464;2023-04-01T00:30:07;10.20;92.40
42683;DHT22;28293;50.930;3.464;2023-04-01T00:32:33;10.10;92.60
42683;DHT22;28293;50.930;3.464;2023-04-01T00:34:59;10.10;92.60
42683;DHT22;28293;50.930;3.464;2023-04-01T00:37:25;10.20;92.70
42683;DHT22;28293;50.930;3.464;2023-04-01T00:39:51;10.20;92.70
42683;DHT22;28293;50.930;3.464;2023-04-01T00:42:17;10.20;92.70
42683;DHT22;28293;50.930;3.464;2023-04-01T00:44:45;10.20;92.80
42683;DHT22;28293;50.930;3.464;2023-04-01T00:47:13;10.20;92.70
42683;DHT22;28293;50.930;3.464;2023-04-01T00:49:44;10.10;92.70
42683;DHT22;28293;50.930;3.464;2023-04-01T00:52:13;10.10;92.60
42683;DHT22;28293;50.930;3.464;2023-04-01T00:54:40;10.00;92.60
42683;DHT22;28293;50.930;3.464;2023-04-01T00:57:29;10.00;92.60
42683;DHT22;28293;50.930;3.464;2023-04-01T00:59:57;10.10;92.60
42683;DHT22;28293;50.930;3.464;2023-04-01T01:02:23;10.00;92.70
42683;DHT22;28293;50.930;3.464;2023-04-01T01:04:49;10.00;92.80
42683;DHT22;28293;50.930;3.464;2023-04-01T01:07:29;9.90;92.90
42683;DHT22;28293;50.930;3.464;2023-04-01T01:12:39;9.90;92.80
42683;DHT22;28293;50.930;3.464;2023-04-01T01:31:23;9.80;92.80
42683;DHT22;28293;50.930;3.464;2023-04-01T01:33:54;9.80;92.90
42683;DHT22;28293;50.930;3.464;2023-04-01T01:36:28;9.80;92.90
42683;DHT22;28293;50.930;3.464;2023-04-01T01:38:55;9.80;93.00
42683;DHT22;28293;50.930;3.464;2023-04-01T01:41:22;9.70;93.10
42683;DHT22;28293;50.930;3.464;2023-04-01T01:43:50;9.80;93.30
42683;DHT22;28293;50.930;3.464;2023-04-01T01:46:20;9.80;93.30
42683;DHT22;28293;50.930;3.464;2023-04-01T01:48:48;9.80;93.40
42683;DHT22;28293;50.930;3.464;2023-04-01T01:51:17;9.80;93.50
42683;DHT22;28293;50.930;3.464;2023-04-01T01:53:43;9.80;93.60
42683;DHT22;28293;50.930;3.464;2023-04-01T01:56:11;9.80;93.60
42683;DHT22;28293;50.930;3.464;2023-04-01T01:58:42;9.80;93.70
42683;DHT22;28293;50.930;3.464;2023-04-01T02:01:17;9.80;93.70
42683;DHT22;28293;50.930;3.464;2023-04-01T02:03:46;9.80;93.70
42683;DHT22;28293;50.930;3.464;2023-04-01T02:06:15;9.80;93.60
42683;DHT22;28293;50.930;3.464;2023-04-01T02:09:01;9.80;93.40
42683;DHT22;28293;50.930;3.464;2023-04-01T02:11:52;9.80;93.10
42683;DHT22;28293;50.930;3.464;2023-04-01T02:14:31;9.80;93.00
42683;DHT22;28293;50.930;3.464;2023-04-01T02:17:08;9.70;92.70
42683;DHT22;28293;50.930;3.464;2023-04-01T02:19:45;9.80;92.60
42683;DHT22;28293;50.930;3.464;2023-04-01T02:22:16;9.80;92.40
42683;DHT22;28293;50.930;3.464;2023-04-01T02:24:43;9.80;92.30
42683;DHT22;28293;50.930;3.464;2023-04-01T02:27:11;9.80;92.20
42683;DHT22;28293;50.930;3.464;2023-04-01T02:29:37;9.80;92.00
42683;DHT22;28293;50.930;3.464;2023-04-01T02:32:05;9.90;92.00
42683;DHT22;28293;50.930;3.464;2023-04-01T02:34:31;9.90;91.90
42683;DHT22;28293;50.930;3.464;2023-04-01T02:36:57;9.90;91.90
42683;DHT22;28293;50.930;3.464;2023-04-01T02:39:23;9.90;91.70
42683;DHT22;28293;50.930;3.464;2023-04-01T02:41:51;9.90;91.60
42683;DHT22;28293;50.930;3.464;2023-04-01T02:44:16;9.90;91.50
42683;DHT22;28293;50.930;3.464;2023-04-01T02:46:42;9.90;91.60
42683;DHT22;28293;50.930;3.464;2023-04-01T02:49:08;9.90;91.50
42683;DHT22;28293;50.930;3.464;2023-04-01T02:51:34;9.90;91.50
42683;DHT22;28293;50.930;3.464;2023-04-01T02:54:00;9.90;91.60
42683;DHT22;28293;50.930;3.464;2023-04-01T02:56:26;9.90;91.60
42683;DHT22;28293;50.930;3.464;2023-04-01T02:58:53;9.90;91.60
42683;DHT22;28293;50.930;3.464;2023-04-01T03:01:19;9.90;91.60
42683;DHT22;28293;50.930;3.464;2023-04-01T03:03:44;9.90;91.70
42683;DHT22;28293;50.930;3.464;2023-04-01T03:06:13;9.80;91.60
42683;DHT22;28293;50.930;3.464;2023-04-01T03:08:39;9.80;91.70
42683;DHT22;28293;50.930;3.464;2023-04-01T03:11:05;9.90;91.70
42683;DHT22;28293;50.930;3.464;2023-04-01T03:13:31;9.90;91.70
42683;DHT22;28293;50.930;3.464;2023-04-01T03:15:57;9.80;91.70
42683;DHT22;28293;50.930;3.464;2023-04-01T03:18:23;9.90;91.50
42683;DHT22;28293;50.930;3.464;2023-04-01T03:20:49;9.80;91.50
42683;DHT22;28293;50.930;3.464;2023-04-01T03:23:15;9.90;91.50
42683;DHT22;28293;50.930;3.464;2023-04-01T03:25:42;9.90;91.60
42683;DHT22;28293;50.930;3.464;2023-04-01T03:28:08;9.90;91.80
42683;DHT22;28293;50.930;3.464;2023-04-01T03:30:34;9.80;92.00
42683;DHT22;28293;50.930;3.464;2023-04-01T03:33:00;9.80;92.20
42683;DHT22;28293;50.930;3.464;2023-04-01T03:35:26;9.80;92.50
42683;DHT22;28293;50.930;3.464;2023-04-01T03:37:53;9.70;92.80
42683;DHT22;28293;50.930;3.464;2023-04-01T03:40:19;9.70;93.00
42683;DHT22;28293;50.930;3.464;2023-04-01T03:42:45;9.70;93.10
42683;DHT22;28293;50.930;3.464;2023-04-01T03:45:11;9.70;93.20
42683;DHT22;28293;50.930;3.464;2023-04-01T03:47:40;9.70;93.30
42683;DHT22;28293;50.930;3.464;2023-04-01T03:50:06;9.60;93.50
42683;DHT22;28293;50.930;3.464;2023-04-01T03:52:33;9.60;93.60
42683;DHT22;28293;50.930;3.464;2023-04-01T03:55:00;9.60;93.60
42683;DHT22;28293;50.930;3.464;2023-04-01T03:57:26;9.60;93.60
42683;DHT22;28293;50.930;3.464;2023-04-01T03:59:51;9.60;93.60
42683;DHT22;28293;50.930;3.464;2023-04-01T04:02:17;9.60;93.50
42683;DHT22;28293;50.930;3.464;2023-04-01T04:04:43;9.60;93.30
42683;DHT22;28293;50.930;3.464;2023-04-01T04:07:09;9.60;93.30
42683;DHT22;28293;50.930;3.464;2023-04-01T04:09:35;9.60;93.20
42683;DHT22;28293;50.930;3.464;2023-04-01T04:12:01;9.60;93.00
42683;DHT22;28293;50.930;3.464;2023-04-01T04:14:27;9.60;93.00
42683;DHT22;28293;50.930;3.464;2023-04-01T04:16:52;9.60;93.00
42683;DHT22;28293;50.930;3.464;2023-04-01T04:19:19;9.60;93.10
42683;DHT22;28293;50.930;3.464;2023-04-01T04:21:44;9.60;93.10
42683;DHT22;28293;50.930;3.464;2023-04-01T04:24:10;9.60;92.90
42683;DHT22;28293;50.930;3.464;2023-04-01T04:26:36;9.60;92.90
42683;DHT22;28293;50.930;3.464;2023-04-01T04:29:02;9.50;92.90
42683;DHT22;28293;50.930;3.464;2023-04-01T04:31:28;9.60;92.90
42683;DHT22;28293;50.930;3.464;2023-04-01T04:33:54;9.50;92.90
42683;DHT22;28293;50.930;3.464;2023-04-01T04:36:21;9.50;92.90
42683;DHT22;28293;50.930;3.464;2023-04-01T04:38:47;9.50;93.00
42683;DHT22;28293;50.930;3.464;2023-04-01T04:41:14;9.50;93.00
42683;DHT22;28293;50.930;3.464;2023-04-01T04:43:41;9.50;92.90
42683;DHT22;28293;50.930;3.464;2023-04-01T04:46:08;9.50;92.80
42683;DHT22;28293;50.930;3.464;2023-04-01T04:48:34;9.50;92.70
42683;DHT22;28293;50.930;3.464;2023-04-01T04:51:00;9.60;92.60
42683;DHT22;28293;50.930;3.464;2023-04-01T04:53:26;9.60;92.50
42683;DHT22;28293;50.930;3.464;2023-04-01T04:55:53;9.60;92.50
42683;DHT22;28293;50.930;3.464;2023-04-01T04:58:19;9.60;92.40
42683;DHT22;28293;50.930;3.464;2023-04-01T05:00:45;9.50;92.20
42683;DHT22;28293;50.930;3.464;2023-04-01T05:03:12;9.60;92.20
42683;DHT22;28293;50.930;3.464;2023-04-01T05:05:38;9.60;92.20
42683;DHT22;28293;50.930;3.464;2023-04-01T05:08:05;9.60;92.10
42683;DHT22;28293;50.930;3.464;2023-04-01T05:10:31;9.60;92.10
42683;DHT22;28293;50.930;3.464;2023-04-01T05:12:57;9.60;92.00
42683;DHT22;28293;50.930;3.464;2023-04-01T05:15:23;9.50;92.00
42683;DHT22;28293;50.930;3.464;2023-04-01T05:17:49;9.60;91.80
42683;DHT22;28293;50.930;3.464;2023-04-01T05:20:15;9.50;91.90
42683;DHT22;28293;50.930;3.464;2023-04-01T05:22:42;9.60;91.90
42683;DHT22;28293;50.930;3.464;2023-04-01T05:25:07;9.60;91.70
42683;DHT22;28293;50.930;3.464;2023-04-01T05:27:33;9.50;91.50
42683;DHT22;28293;50.930;3.464;2023-04-01T05:29:59;9.60;91.40
42683;DHT22;28293;50.930;3.464;2023-04-01T05:32:25;9.50;91.40
42683;DHT22;28293;50.930;3.464;2023-04-01T05:34:51;9.50;91.30
42683;DHT22;28293;50.930;3.464;2023-04-01T05:37:17;9.50;91.40
42683;DHT22;28293;50.930;3.464;2023-04-01T05:39:43;9.60;91.50
42683;DHT22;28293;50.930;3.464;2023-04-01T05:42:09;9.60;91.50
42683;DHT22;28293;50.930;3.464;2023-04-01T05:44:35;9.60;91.40
42683;DHT22;28293;50.930;3.464;2023-04-01T05:47:02;9.60;91.50
42683;DHT22;28293;50.930;3.464;2023-04-01T05:49:28;9.60;91.50
42683;DHT22;28293;50.930;3.464;2023-04-01T05:51:54;9.50;91.60
42683;DHT22;28293;50.930;3.464;2023-04-01T05:54:20;9.50;91.90
42683;DHT22;28293;50.930;3.464;2023-04-01T05:56:46;9.50;92.00
42683;DHT22;28293;50.930;3.464;2023-04-01T05:59:12;9.50;92.00
42683;DHT22;28293;50.930;3.464;2023-04-01T06:01:38;9.50;92.10
42683;DHT22;28293;50.930;3.464;2023-04-01T06:04:04;9.50;92.30
42683;DHT22;28293;50.930;3.464;2023-04-01T06:06:31;9.50;92.40
42683;DHT22;28293;50.930;3.464;2023-04-01T06:09:06;9.50;92.60
42683;DHT22;28293;50.930;3.464;2023-04-01T06:17:50;9.50;92.90
42683;DHT22;28293;50.930;3.464;2023-04-01T06:31:33;9.40;93.20
42683;DHT22;28293;50.930;3.464;2023-04-01T06:34:29;9.30;93.30
42683;DHT22;28293;50.930;3.464;2023-04-01T06:48:18;9.40;93.40
42683;DHT22;28293;50.930;3.464;2023-04-01T06:50:58;9.40;93.40
42683;DHT22;28293;50.930;3.464;2023-04-01T06:56:12;9.30;93.50
42683;DHT22;28293;50.930;3.464;2023-04-01T06:58:50;9.30;93.50
42683;DHT22;28293;50.930;3.464;2023-04-01T07:01:22;9.30;93.50
42683;DHT22;28293;50.930;3.464;2023-04-01T07:03:57;9.30;93.50
42683;DHT22;28293;50.930;3.464;2023-04-01T07:06:25;9.40;93.40
42683;DHT22;28293;50.930;3.464;2023-04-01T07:08:54;9.40;93.40
42683;DHT22;28293;50.930;3.464;2023-04-01T07:11:35;9.30;93.30
42683;DHT22;28293;50.930;3.464;2023-04-01T07:17:06;9.30;93.30
42683;DHT22;28293;50.930;3.464;2023-04-01T07:20:05;9.40;93.30
42683;DHT22;28293;50.930;3.464;2023-04-01T07:22:40;9.40;93.40
42683;DHT22;28293;50.930;3.464;2023-04-01T07:25:20;9.40;93.40
42683;DHT22;28293;50.930;3.464;2023-04-01T07:27:46;9.40;93.40
42683;DHT22;28293;50.930;3.464;2023-04-01T07:30:16;9.40;93.40
42683;DHT22;28293;50.930;3.464;2023-04-01T07:53:01;9.60;93.20
42683;DHT22;28293;50.930;3.464;2023-04-01T07:55:57;9.60;93.10
42683;DHT22;28293;50.930;3.464;2023-04-01T08:01:02;9.70;92.80
42683;DHT22;28293;50.930;3.464;2023-04-01T08:11:27;9.70;92.80
42683;DHT22;28293;50.930;3.464;2023-04-01T08:17:16;9.90;92.70
42683;DHT22;28293;50.930;3.464;2023-04-01T08:22:51;9.80;92.30
42683;DHT22;28293;50.930;3.464;2023-04-01T08:25:29;9.80;92.30
42683;DHT22;28293;50.930;3.464;2023-04-01T08:30:50;9.90;92.40
42683;DHT22;28293;50.930;3.464;2023-04-01T08:33:24;9.90;92.50
42683;DHT22;28293;50.930;3.464;2023-04-01T08:36:13;9.90;92.30
42683;DHT22;28293;50.930;3.464;2023-04-01T08:52:33;10.10;92.40
42683;DHT22;28293;50.930;3.464;2023-04-01T08:57:44;10.00;92.10
42683;DHT22;28293;50.930;3.464;2023-04-01T09:00:31;10.00;92.40
42683;DHT22;28293;50.930;3.464;2023-04-01T09:11:30;10.00;92.10
42683;DHT22;28293;50.930;3.464;2023-04-01T09:16:57;10.10;92.30
42683;DHT22;28293;50.930;3.464;2023-04-01T09:28:17;10.10;91.80
42683;DHT22;28293;50.930;3.464;2023-04-01T09:44:34;10.50;90.80
42683;DHT22;28293;50.930;3.464;2023-04-01T10:21:59;10.50;88.60
42683;DHT22;28293;50.930;3.464;2023-04-01T10:36:47;10.50;88.90
42683;DHT22;28293;50.930;3.464;2023-04-01T10:42:45;10.60;88.90
42683;DHT22;28293;50.930;3.464;2023-04-01T10:54:33;10.20;88.60
42683;DHT22;28293;50.930;3.464;2023-04-01T10:59:57;10.30;88.60
42683;DHT22;28293;50.930;3.464;2023-04-01T11:12:09;10.10;88.70
42683;DHT22;28293;50.930;3.464;2023-04-01T11:17:48;10.00;89.10
42683;DHT22;28293;50.930;3.464;2023-04-01T11:25:36;10.10;88.50
42683;DHT22;28293;50.930;3.464;2023-04-01T11:33:47;10.30;87.80
42683;DHT22;28293;50.930;3.464;2023-04-01T11:39:24;10.50;87.70
42683;DHT22;28293;50.930;3.464;2023-04-01T11:56:17;10.60;87.30
42683;DHT22;28293;50.930;3.464;2023-04-01T12:07:08;10.30;88.30
42683;DHT22;28293;50.930;3.464;2023-04-01T12:09:52;10.30;87.80
42683;DHT22;28293;50.930;3.464;2023-04-01T12:21:38;10.60;87.40
42683;DHT22;28293;50.930;3.464;2023-04-01T12:27:39;10.40;88.20
42683;DHT22;28293;50.930;3.464;2023-04-01T12:38:30;10.50;88.20
42683;DHT22;28293;50.930;3.464;2023-04-01T12:44:05;10.60;88.40
42683;DHT22;28293;50.930;3.464;2023-04-01T13:14:48;9.90;90.40
42683;DHT22;28293;50.930;3.464;2023-04-01T13:25:35;9.90;90.10
42683;DHT22;28293;50.930;3.464;2023-04-01T13:28:23;10.00;90.30
42683;DHT22;28293;50.930;3.464;2023-04-01T13:30:57;9.90;89.90
42683;DHT22;28293;50.930;3.464;2023-04-01T13:33:50;9.90;89.90
42683;DHT22;28293;50.930;3.464;2023-04-01T13:36:36;9.70;89.90
42683;DHT22;28293;50.930;3.464;2023-04-01T14:07:39;9.70;90.60
42683;DHT22;28293;50.930;3.464;2023-04-01T14:10:25;9.70;90.40
42683;DHT22;28293;50.930;3.464;2023-04-01T14:12:47;9.80;90.50
42683;DHT22;28293;50.930;3.464;2023-04-01T14:49:13;9.60;90.00
42683;DHT22;28293;50.930;3.464;2023-04-01T14:51:41;9.70;90.00
42683;DHT22;28293;50.930;3.464;2023-04-01T14:54:21;9.80;90.30
42683;DHT22;28293;50.930;3.464;2023-04-01T14:56:50;9.70;90.30
42683;DHT22;28293;50.930;3.464;2023-04-01T15:05:44;9.60;90.10
42683;DHT22;28293;50.930;3.464;2023-04-01T15:08:23;9.60;90.40
42683;DHT22;28293;50.930;3.464;2023-04-01T15:27:19;9.50;91.20
42683;DHT22;28293;50.930;3.464;2023-04-01T15:43:18;9.70;91.40
42683;DHT22;28293;50.930;3.464;2023-04-01T16:02:17;9.60;91.50
42683;DHT22;28293;50.930;3.464;2023-04-01T16:04:50;9.50;91.30
42683;DHT22;28293;50.930;3.464;2023-04-01T16:16:00;9.50;91.30
42683;DHT22;28293;50.930;3.464;2023-04-01T16:21:44;9.40;91.20
42683;DHT22;28293;50.930;3.464;2023-04-01T16:24:19;9.50;91.40
42683;DHT22;28293;50.930;3.464;2023-04-01T16:26:54;9.50;91.30
42683;DHT22;28293;50.930;3.464;2023-04-01T16:34:33;9.50;91.70
42683;DHT22;28293;50.930;3.464;2023-04-01T16:37:21;9.40;91.30
42683;DHT22;28293;50.930;3.464;2023-04-01T16:40:13;9.40;91.50
42683;DHT22;28293;50.930;3.464;2023-04-01T16:42:53;9.30;91.50
42683;DHT22;28293;50.930;3.464;2023-04-01T16:45:46;9.30;91.60
42683;DHT22;28293;50.930;3.464;2023-04-01T16:48:35;9.30;91.70
42683;DHT22;28293;50.930;3.464;2023-04-01T16:51:13;9.30;91.60
42683;DHT22;28293;50.930;3.464;2023-04-01T16:54:02;9.30;91.70
42683;DHT22;28293;50.930;3.464;2023-04-01T16:56:42;9.40;91.60
42683;DHT22;28293;50.930;3.464;2023-04-01T17:02:01;9.30;91.80
42683;DHT22;28293;50.930;3.464;2023-04-01T17:04:50;9.30;91.80
42683;DHT22;28293;50.930;3.464;2023-04-01T17:23:34;9.20;92.60
42683;DHT22;28293;50.930;3.464;2023-04-01T17:26:26;9.20;92.70
42683;DHT22;28293;50.930;3.464;2023-04-01T17:29:37;9.20;92.70
42683;DHT22;28293;50.930;3.464;2023-04-01T17:35:13;9.20;92.90
42683;DHT22;28293;50.930;3.464;2023-04-01T17:37:45;9.10;93.00
42683;DHT22;28293;50.930;3.464;2023-04-01T17:45:53;9.10;93.20
42683;DHT22;28293;50.930;3.464;2023-04-01T17:51:44;9.20;93.30
42683;DHT22;28293;50.930;3.464;2023-04-01T17:57:45;9.20;93.20
42683;DHT22;28293;50.930;3.464;2023-04-01T18:14:13;9.30;93.00
42683;DHT22;28293;50.930;3.464;2023-04-01T18:22:40;9.20;93.20
42683;DHT22;28293;50.930;3.464;2023-04-01T18:25:40;9.20;93.10
42683;DHT22;28293;50.930;3.464;2023-04-01T18:28:25;9.20;93.10
42683;DHT22;28293;50.930;3.464;2023-04-01T18:33:36;9.10;93.00
42683;DHT22;28293;50.930;3.464;2023-04-01T18:44:19;9.00;92.70
42683;DHT22;28293;50.930;3.464;2023-04-01T19:00:14;8.90;92.40
42683;DHT22;28293;50.930;3.464;2023-04-01T19:03:10;8.80;92.20
42683;DHT22;28293;50.930;3.464;2023-04-01T19:05:40;8.80;92.40
42683;DHT22;28293;50.930;3.464;2023-04-01T19:08:30;8.80;92.40
42683;DHT22;28293;50.930;3.464;2023-04-01T19:11:03;8.80;92.40
42683;DHT22;28293;50.930;3.464;2023-04-01T19:19:06;8.80;92.30
42683;DHT22;28293;50.930;3.464;2023-04-01T19:21:42;8.80;92.30
42683;DHT22;28293;50.930;3.464;2023-04-01T19:38:02;8.70;92.10
42683;DHT22;28293;50.930;3.464;2023-04-01T20:00:02;8.70;92.10
42683;DHT22;28293;50.930;3.464;2023-04-01T20:05:43;8.70;92.20
42683;DHT22;28293;50.930;3.464;2023-04-01T20:14:26;8.70;92.20
42683;DHT22;28293;50.930;3.464;2023-04-01T20:19:43;8.70;92.30
42683;DHT22;28293;50.930;3.464;2023-04-01T20:25:20;8.60;92.30
42683;DHT22;28293;50.930;3.464;2023-04-01T20:33:57;8.60;92.10
42683;DHT22;28293;50.930;3.464;2023-04-01T20:42:21;8.60;92.10
42683;DHT22;28293;50.930;3.464;2023-04-01T20:45:10;8.60;92.20
42683;DHT22;28293;50.930;3.464;2023-04-01T20:47:55;8.60;92.10
42683;DHT22;28293;50.930;3.464;2023-04-01T20:56:02;8.60;92.20
42683;DHT22;28293;50.930;3.464;2023-04-01T21:04:22;8.60;92.30
42683;DHT22;28293;50.930;3.464;2023-04-01T21:07:00;8.60;92.30
42683;DHT22;28293;50.930;3.464;2023-04-01T21:14:56;8.60;92.30
42683;DHT22;28293;50.930;3.464;2023-04-01T21:20:42;8.50;92.50
42683;DHT22;28293;50.930;3.464;2023-04-01T21:34:37;8.50;92.30
42683;DHT22;28293;50.930;3.464;2023-04-01T21:37:31;8.50;92.40
42683;DHT22;28293;50.930;3.464;2023-04-01T21:59:47;8.50;92.80
42683;DHT22;28293;50.930;3.464;2023-04-01T22:05:37;8.40;92.70
42683;DHT22;28293;50.930;3.464;2023-04-01T22:08:24;8.40;92.70
42683;DHT22;28293;50.930;3.464;2023-04-01T22:13:32;8.40;92.50
42683;DHT22;28293;50.930;3.464;2023-04-01T22:19:12;8.40;92.60
42683;DHT22;28293;50.930;3.464;2023-04-01T22:27:31;8.40;92.50
42683;DHT22;28293;50.930;3.464;2023-04-01T22:30:21;8.40;92.40
42683;DHT22;28293;50.930;3.464;2023-04-01T22:32:51;8.40;92.50
42683;DHT22;28293;50.930;3.464;2023-04-01T22:35:36;8.40;92.60
42683;DHT22;28293;50.930;3.464;2023-04-01T22:38:36;8.40;92.60
42683;DHT22;28293;50.930;3.464;2023-04-01T22:43:44;8.40;92.50
42683;DHT22;28293;50.930;3.464;2023-04-01T22:46:32;8.30;92.60
42683;DHT22;28293;50.930;3.464;2023-04-01T22:49:11;8.40;92.60
42683;DHT22;28293;50.930;3.464;2023-04-01T22:51:55;8.40;92.60
42683;DHT22;28293;50.930;3.464;2023-04-01T22:54:36;8.40;92.50
42683;DHT22;28293;50.930;3.464;2023-04-01T22:57:07;8.40;92.50
42683;DHT22;28293;50.930;3.464;2023-04-01T22:59:54;8.40;92.50
42683;DHT22;28293;50.930;3.464;2023-04-01T23:02:31;8.40;92.50
42683;DHT22;28293;50.930;3.464;2023-04-01T23:05:03;8.40;92.40
42683;DHT22;28293;50.930;3.464;2023-04-01T23:07:40;8.40;92.30
42683;DHT22;28293;50.930;3.464;2023-04-01T23:13:18;8.40;92.40
42683;DHT22;28293;50.930;3.464;2023-04-01T23:15:46;8.40;92.40
42683;DHT22;28293;50.930;3.464;2023-04-01T23:18:25;8.40;92.40
42683;DHT22;28293;50.930;3.464;2023-04-01T23:24:01;8.30;92.40
42683;DHT22;28293;50.930;3.464;2023-04-01T23:26:47;8.30;92.40
42683;DHT22;28293;50.930;3.464;2023-04-01T23:29:17;8.40;92.40
42683;DHT22;28293;50.930;3.464;2023-04-01T23:31:59;8.30;92.40
42683;DHT22;28293;50.930;3.464;2023-04-01T23:34:32;8.40;92.40
42683;DHT22;28293;50.930;3.464;2023-04-01T23:37:05;8.40;92.40
42683;DHT22;28293;50.930;3.464;2023-04-01T23:39:38;8.30;92.40
42683;DHT22;28293;50.930;3.464;2023-04-01T23:44:52;8.30;92.50
42683;DHT22;28293;50.930;3.464;2023-04-01T23:47:24;8.30;92.60
42683;DHT22;28293;50.930;3.464;2023-04-01T23:49:56;8.30;92.60
42683;DHT22;28293;50.930;3.464;2023-04-01T23:52:24;8.20;92.60
